Flight Track Log - Related Links

Times and Time Zones

All times are in EDT time to prevent confusion due to time zone crossing. See the UAL1447 flight status page for this flight to view local times or setup timezone preferences in your user account.

Time Position Orientation Groundspeed Altitude Reporting Facility
EDT Latitude Longitude Course Direction KTS MPH feet Rate Location/Type
Thu 10:32:32 PM 30.0215 -95.2952 184° South  Level FlightAware Approximate
Thu 10:32:42 PM 29.9781 -95.2983 27° Northeast 166 191 800  Level Houston Center
Thu 10:37:08 PM 30.2686 -95.1261 35° Northeast 308 354 10,600 2,135 Climbing Houston Center
Thu 10:38:08 PM 30.3494 -95.0614 35° Northeast 327 376 12,400 2,500 Climbing Houston Center
Thu 10:39:08 PM 30.4392 -94.9872 36° Northeast 349 402 15,600 2,700 Climbing Houston Center
Thu 10:40:08 PM 30.5222 -94.9178 35° Northeast 355 409 17,800 2,050 Climbing Houston Center
Thu 10:41:08 PM 30.6094 -94.8481 33° Northeast 365 420 19,700 1,900 Climbing Houston Center
Thu 10:42:08 PM 30.7028 -94.7764 34° Northeast 382 440 21,600 1,861 Climbing Houston Center
Thu 10:43:46 PM 30.8453 -94.6650 32° Northeast 402 463 24,600 1,671 Climbing Fort Worth Center
Thu 10:44:46 PM 30.9458 -94.5917 36° Northeast 410 472 26,000 1,350 Climbing Fort Worth Center
Thu 10:45:46 PM 31.0422 -94.5111 32° Northeast 410 472 27,300 1,250 Climbing Fort Worth Center
Thu 10:46:46 PM 31.1572 -94.4275 35° Northeast 423 487 28,500 1,200 Climbing Fort Worth Center
Thu 10:47:46 PM 31.2533 -94.3492 34° Northeast 445 512 29,700 1,550 Climbing Fort Worth Center
Thu 10:48:46 PM 31.3578 -94.2681 33° Northeast 451 519 31,600 1,650 Climbing Fort Worth Center
Thu 10:49:46 PM 31.4603 -94.1889 34° Northeast 446 513 33,000 700 Climbing Fort Worth Center
Thu 10:50:46 PM 31.5606 -94.1100 33° Northeast 446 513 33,000  Level Fort Worth Center
Thu 10:51:46 PM 31.6711 -94.0256 21° North 446 513 33,000  Level Fort Worth Center
Thu 10:52:46 PM 31.7864 -93.9722 19° North 434 499 33,000  Level Fort Worth Center
Thu 10:53:46 PM 31.9022 -93.9264 19° North 434 499 33,000 50 Level Fort Worth Center
Thu 10:54:46 PM 32.0075 -93.8831 19° North 434 499 33,100 600 Climbing Fort Worth Center
Thu 10:55:46 PM 32.1231 -93.8369 21° North 439 505 34,200 950 Climbing Fort Worth Center
Thu 10:56:46 PM 32.2508 -93.7781 18° North 434 499 35,000 400 Climbing Fort Worth Center
Thu 10:57:46 PM 32.3664 -93.7339 20° North 434 499 35,000  Level Fort Worth Center
Thu 10:58:46 PM 32.4817 -93.6850 18° North 440 506 35,000  Level Fort Worth Center
Thu 10:59:46 PM 32.6036 -93.6381 19° North 440 506 35,000  Level Fort Worth Center
Thu 11:00:46 PM 32.7211 -93.5911 19° North 440 506 35,000  Level Fort Worth Center
Thu 11:01:46 PM 32.8386 -93.5417 19° North 440 506 35,000  Level Fort Worth Center
Thu 11:02:46 PM 32.9581 -93.4919 18° North 440 506 35,000  Level Fort Worth Center
Thu 11:03:46 PM 33.0775 -93.4444 20° North 440 506 35,000  Level Fort Worth Center
Thu 11:04:46 PM 33.1867 -93.3975 18° North 446 513 35,000  Level Fort Worth Center
Thu 11:05:46 PM 33.3083 -93.3497 18° North 446 513 35,000  Level Fort Worth Center
Thu 11:06:46 PM 33.4300 -93.3017 19° North 451 519 35,000  Level Fort Worth Center
Thu 11:08:38 PM 33.6519 -93.2094 18° North 450 518 35,000  Level Memphis Center
Thu 11:09:38 PM 33.7719 -93.1633 19° North 445 512 35,000 100 Level Memphis Center
Thu 11:10:38 PM 33.8919 -93.1147 19° North 445 512 35,200 1,000 Climbing Memphis Center
Thu 11:11:38 PM 34.0078 -93.0658 20° North 445 512 37,000 900 Climbing Memphis Center
Thu 11:12:38 PM 34.1214 -93.0167 20° North 439 505 37,000  Level Memphis Center
Thu 11:13:38 PM 34.2353 -92.9675 20° North 434 499 37,000  Level Memphis Center
Thu 11:14:38 PM 34.3469 -92.9181 18° North 428 493 37,000  Level Memphis Center
Thu 11:15:38 PM 34.4647 -92.8711 20° North 428 493 37,000  Level Memphis Center
Thu 11:16:38 PM 34.5806 -92.8192 19° North 435 501 37,000  Level Memphis Center
Thu 11:17:38 PM 34.6961 -92.7719 20° North 435 501 37,000  Level Memphis Center
Thu 11:18:38 PM 34.8267 -92.7150 19° North 435 501 37,000  Level Memphis Center
Thu 11:19:38 PM 34.9444 -92.6650 20° North 441 507 37,000  Level Memphis Center
Thu 11:20:38 PM 35.0600 -92.6147 20° North 441 507 37,000  Level Memphis Center
Thu 11:21:38 PM 35.1778 -92.5622 20° North 441 507 37,000  Level Memphis Center
Thu 11:22:38 PM 35.2914 -92.5117 18° North 441 507 37,000  Level Memphis Center
Thu 11:23:38 PM 35.4089 -92.4639 21° North 441 507 37,000  Level Memphis Center
Thu 11:24:38 PM 35.5244 -92.4106 19° North 441 507 37,000  Level Memphis Center
Thu 11:25:38 PM 35.6400 -92.3622 19° North 441 507 37,000  Level Memphis Center
Thu 11:26:38 PM 35.7556 -92.3139 19° North 441 507 37,000  Level Memphis Center
Thu 11:27:38 PM 35.8731 -92.2631 20° North 441 507 37,000  Level Memphis Center
Thu 11:28:38 PM 35.9886 -92.2117 19° North 441 507 37,000  Level Memphis Center
Thu 11:29:38 PM 36.1061 -92.1606 20° North 441 507 37,000  Level Memphis Center
Thu 11:30:38 PM 36.2236 -92.1064 20° North 441 507 37,000  Level Memphis Center
Thu 11:31:38 PM 36.3411 -92.0547 20° North 441 507 37,000  Level Memphis Center
Thu 11:32:38 PM 36.4625 -92.0006 20° North 446 513 37,000  Level Memphis Center
Thu 11:33:38 PM 36.5653 -91.9536 19° North 446 513 37,000  Level Memphis Center
Thu 11:35:47 PM 36.8256 -91.8386 20° North 445 512 37,000  Level Kansas City Center
Thu 11:36:47 PM 36.9456 -91.7850 20° North 445 512 37,000  Level Kansas City Center
Thu 11:37:47 PM 37.0653 -91.7314 21° North 445 512 37,000  Level Kansas City Center
Thu 11:38:47 PM 37.1828 -91.6750 19° North 445 512 37,000  Level Kansas City Center
Thu 11:39:47 PM 37.3025 -91.6236 20° North 445 512 37,000  Level Kansas City Center
Thu 11:40:47 PM 37.4242 -91.5667 21° North 450 518 37,000  Level Kansas City Center
Thu 11:41:47 PM 37.5439 -91.5094 20° North 450 518 37,000  Level Kansas City Center
Thu 11:42:47 PM 37.6697 -91.4519 20° North 457 526 37,000  Level Kansas City Center
Thu 11:43:47 PM 37.7911 -91.3972 20° North 464 534 37,000  Level Kansas City Center
Thu 11:44:47 PM 37.9192 -91.3392 21° North 469 540 37,000  Level Kansas City Center
Thu 11:45:47 PM 38.0406 -91.2814 20° North 469 540 37,000  Level Kansas City Center
Thu 11:46:47 PM 38.1722 -91.2203 21° North 463 533 37,000  Level Kansas City Center
Thu 11:47:47 PM 38.2939 -91.1619 20° North 463 533 37,000  Level Kansas City Center
Thu 11:48:48 PM 38.4194 -91.1033 20° North 463 533 37,000  Level Kansas City Center
Thu 11:49:47 PM 38.5428 -91.0444 20° North 463 533 37,000  Level Kansas City Center
Thu 11:50:47 PM 38.6661 -90.9881 23° Northeast 463 533 37,000  Level Kansas City Center
Thu 11:51:47 PM 38.7728 -90.9297 23° Northeast 463 533 37,000  Level Kansas City Center
Thu 11:52:47 PM 38.9083 -90.8564 22° Northeast 470 541 37,000 -350 Level Kansas City Center
Thu 11:53:47 PM 39.0272 -90.7942 23° Northeast 459 528 36,300 -800 Descending Kansas City Center
Thu 11:54:47 PM 39.1361 -90.7350 24° Northeast 465 535 35,400 -650 Descending Kansas City Center
Thu 11:55:47 PM 39.2650 -90.6614 23° Northeast 465 535 35,000 -200 Descending Kansas City Center
Thu 11:56:47 PM 39.3736 -90.6019 23° Northeast 465 535 35,000  Level Kansas City Center
Thu 11:57:47 PM 39.5067 -90.5300 23° Northeast 470 541 35,000  Level Kansas City Center
Thu 11:58:47 PM 39.6131 -90.4703 24° Northeast 463 533 35,000  Level Kansas City Center
Thu 11:59:47 PM 39.7397 -90.3983 24° Northeast 463 533 35,000  Level Kansas City Center
Fri 12:01:29 AM 39.9347 -90.2867 23° Northeast 470 541 35,000  Level Chicago Center
Fri 12:02:29 AM 40.0542 -90.2206 23° Northeast 470 541 35,000  Level Chicago Center
Fri 12:03:29 AM 40.1756 -90.1542 23° Northeast 470 541 35,000 -250 Level Chicago Center
Fri 12:04:29 AM 40.2928 -90.0875 24° Northeast 459 528 34,500 -850 Descending Chicago Center
Fri 12:05:29 AM 40.4119 -90.0181 30° Northeast 459 528 33,300 -1,500 Descending Chicago Center
Fri 12:06:29 AM 40.5397 -89.9208 43° Northeast 459 528 31,500 -1,150 Descending Chicago Center
Fri 12:07:29 AM 40.6383 -89.7986 43° Northeast 488 562 31,000 -500 Descending Chicago Center
Fri 12:08:29 AM 40.7386 -89.6733 43° Northeast 488 562 30,500 -1,550 Descending Chicago Center
Fri 12:09:29 AM 40.8347 -89.5558 43° Northeast 482 555 27,900 -2,500 Descending Chicago Center
Fri 12:10:29 AM 40.9350 -89.4325 43° Northeast 475 547 25,500 -2,300 Descending Chicago Center
Fri 12:11:29 AM 41.0269 -89.3197 44° Northeast 463 533 23,300 -2,200 Descending Chicago Center
Fri 12:12:29 AM 41.1164 -89.2039 42° Northeast 450 518 21,100 -2,150 Descending Chicago Center
Fri 12:13:29 AM 41.2017 -89.1017 43° Northeast 435 501 19,000 -2,200 Descending Chicago Center
Fri 12:14:29 AM 41.2806 -89.0044 44° Northeast 430 495 16,700 -2,250 Descending Chicago Center
Fri 12:15:29 AM 41.3636 -88.8961 42° Northeast 418 481 14,500 -2,100 Descending Chicago Center
Fri 12:16:29 AM 41.4486 -88.7931 48° Northeast 418 481 12,500 -1,750 Descending Chicago Center
Fri 12:17:29 AM 41.5231 -88.6817 61° Northeast 405 466 11,000 -750 Descending Chicago Center
Fri 12:18:29 AM 41.5744 -88.5589 48° Northeast 395 455 11,000  Level Chicago Center
Fri 12:19:29 AM 41.6506 -88.4439 50° Northeast 382 440 11,000  Level Chicago Center
Fri 12:20:29 AM 41.7186 -88.3344 49° Northeast 377 434 11,000 -350 Level Chicago Center
Fri 12:21:29 AM 41.7844 -88.2333 49° Northeast 371 427 10,300 -1,050 Descending Chicago Center
Fri 12:22:29 AM 41.8439 -88.1431 North 345 397 8,900 -1,450 Descending Chicago Center
Fri 12:23:29 AM 41.9269 -88.1275 11° North 298 343 7,400 -1,163 Descending Chicago Center
Fri 12:24:07 AM 41.9667 -88.1167 360° North 277 319 7,000 -980 Descending Chicago TRACON
Fri 12:25:07 AM 42.0333 -88.1167 37° Northeast 237 273 5,800 -1,550 Descending Chicago TRACON
Fri 12:26:07 AM 42.0833 -88.0667 114° Southeast 246 283 3,900 -1,619 Descending Chicago TRACON
Fri 12:27:13 AM 42.0667 -88.0167 132° Southeast 152 175 2,400 -1,095 Descending Chicago TRACON
Fri 12:28:13 AM 42.0333 -87.9667 143° Southeast 153 176 1,600 -789 Descending Chicago TRACON
Fri 12:29:07 AM 42.0000 -87.9333 143° Southeast 153 176 900 -778 Descending Chicago TRACON

Login

Don't have an account? Register now (free) for customized features, flight alerts, and more!